createdAt,value
2022-12-12T00:02:16.898Z,98535.50
2022-12-12T00:04:51.022Z,98532.94
2022-12-12T00:07:20.176Z,98534.66
2022-12-12T00:09:49.283Z,98503.22
2022-12-12T00:12:18.898Z,98492.97
2022-12-12T00:14:48.080Z,98512.59
2022-12-12T00:17:24.372Z,98487.03
2022-12-12T00:19:53.680Z,98499.84
2022-12-12T00:22:22.933Z,98508.34
2022-12-12T00:24:52.062Z,98499.84
2022-12-12T00:27:21.180Z,98504.13
2022-12-12T00:29:54.107Z,98495.63
2022-12-12T00:32:26.606Z,98501.56
2022-12-12T00:34:55.801Z,98521.97
2022-12-12T00:37:25.004Z,98510.09
2022-12-12T00:39:54.986Z,98499.88
2022-12-12T00:42:26.842Z,98499.88
2022-12-12T00:44:55.879Z,98496.47
2022-12-12T00:47:33.601Z,98492.22
2022-12-12T00:50:02.856Z,98504.16
2022-12-12T00:52:32.891Z,98495.66
2022-12-12T00:55:08.764Z,98499.88
2022-12-12T00:57:38.009Z,98512.66
2022-12-12T01:00:10.339Z,98507.53
2022-12-12T01:02:41.570Z,98499.88
2022-12-12T01:05:11.896Z,98471.81
2022-12-12T01:07:41.382Z,98500.75
2022-12-12T01:10:11.447Z,98511.78
2022-12-12T01:12:40.728Z,98503.28
2022-12-12T01:15:12.066Z,98499.03
2022-12-12T01:17:44.419Z,98505.84
2022-12-12T01:20:18.738Z,98501.59
2022-12-12T01:22:53.945Z,98508.41
2022-12-12T01:25:28.387Z,98506.69
2022-12-12T01:30:37.108Z,98510.94
2022-12-12T01:33:08.475Z,98513.50
2022-12-12T01:35:37.819Z,98516.03
2022-12-12T01:38:07.413Z,98514.38
2022-12-12T01:40:41.695Z,98508.38
2022-12-12T01:43:18.819Z,98507.53
2022-12-12T01:46:20.479Z,98496.47
2022-12-12T01:48:55.886Z,98492.22
2022-12-12T01:51:28.016Z,98466.69
2022-12-12T01:54:02.637Z,98500.75
2022-12-12T01:56:33.093Z,98470.94
2022-12-12T01:59:15.391Z,98500.72
2022-12-12T02:01:50.686Z,98495.63
2022-12-12T02:04:29.681Z,98493.91
2022-12-12T02:06:59.644Z,98497.31
2022-12-12T02:09:29.195Z,98493.06
2022-12-12T02:11:59.445Z,98475.19
2022-12-12T02:14:31.522Z,98494.75
2022-12-12T02:17:31.092Z,98503.28
2022-12-12T02:24:09.790Z,98496.44
2022-12-12T02:27:08.443Z,98499.88
2022-12-12T02:30:08.639Z,98499.00
2022-12-12T02:32:59.489Z,98493.91
2022-12-12T02:35:42.416Z,98495.63
2022-12-12T02:38:22.601Z,98503.28
2022-12-12T02:41:03.852Z,98501.56
2022-12-12T02:43:40.836Z,98497.28
2022-12-12T02:46:17.297Z,98480.28
2022-12-12T02:49:01.274Z,98504.13
2022-12-12T02:51:38.094Z,98513.47
2022-12-12T02:54:15.796Z,98509.22
2022-12-12T02:57:01.486Z,98509.22
2022-12-12T02:59:34.458Z,98505.84
2022-12-12T03:02:35.396Z,98498.19
2022-12-12T03:05:34.065Z,98493.06
2022-12-12T03:08:16.347Z,98504.13
2022-12-12T03:10:55.012Z,98508.38
2022-12-12T03:13:33.007Z,98500.72
2022-12-12T03:16:14.584Z,98504.13
2022-12-12T03:18:58.904Z,98493.06
2022-12-12T03:21:39.411Z,98485.38
2022-12-12T03:24:22.529Z,98505.81
2022-12-12T03:27:00.644Z,98491.34
2022-12-12T03:29:39.049Z,98507.53
2022-12-12T03:32:13.664Z,98493.06
2022-12-12T03:34:46.815Z,98487.97
2022-12-12T03:37:25.083Z,98505.81
2022-12-12T03:39:59.969Z,98516.88
2022-12-12T03:42:40.047Z,98513.47
2022-12-12T03:45:15.660Z,98511.78
2022-12-12T03:47:51.493Z,98503.25
2022-12-12T03:50:29.464Z,98508.34
2022-12-12T03:53:05.230Z,98510.09
2022-12-12T03:55:39.768Z,98512.63
2022-12-12T03:58:21.212Z,98519.44
2022-12-12T04:00:53.274Z,98519.44
2022-12-12T04:03:29.928Z,98500.72
2022-12-12T04:06:25.318Z,98505.81
2022-12-12T04:09:13.008Z,98517.75
2022-12-12T04:11:59.542Z,98521.97
2022-12-12T04:14:48.348Z,98498.19
2022-12-12T04:17:23.970Z,98512.66
2022-12-12T04:20:10.440Z,98510.09
2022-12-12T04:23:01.090Z,98499.00
2022-12-12T04:25:58.040Z,98506.66
2022-12-12T04:28:29.175Z,98509.22
2022-12-12T04:31:04.086Z,98496.44
2022-12-12T04:33:42.858Z,98510.94
2022-12-12T04:36:15.266Z,98494.78
2022-12-12T04:38:53.058Z,98507.53
2022-12-12T04:41:26.496Z,98511.81
2022-12-12T04:43:58.348Z,98520.28
2022-12-12T04:46:30.733Z,98517.75
2022-12-12T04:49:03.871Z,98517.72
2022-12-12T04:51:47.074Z,98513.50
2022-12-12T04:54:21.636Z,98526.25
2022-12-12T04:56:56.291Z,98522.00
2022-12-12T04:59:26.268Z,98510.94
2022-12-12T05:02:01.413Z,98501.59
2022-12-12T05:04:43.432Z,98512.63
2022-12-12T05:07:18.705Z,98507.53
2022-12-12T05:10:01.842Z,98513.50
2022-12-12T05:12:41.445Z,98509.22
2022-12-12T05:15:12.069Z,98499.84
2022-12-12T05:17:49.528Z,98479.44
2022-12-12T05:20:18.934Z,98496.47
2022-12-12T05:22:48.063Z,98517.75
2022-12-12T05:25:28.856Z,98522.84
2022-12-12T05:28:00.164Z,98519.47
2022-12-12T05:30:29.775Z,98522.84
2022-12-12T05:33:04.906Z,98514.34
2022-12-12T05:35:40.377Z,98528.81
2022-12-12T05:38:09.812Z,98522.00
2022-12-12T05:40:39.438Z,98527.09
2022-12-12T05:43:16.854Z,98518.59
2022-12-12T05:45:46.692Z,98529.66
2022-12-12T05:48:27.378Z,98513.47
2022-12-12T05:50:56.914Z,98522.84
2022-12-12T05:53:26.054Z,98522.00
2022-12-12T05:55:55.427Z,98519.44
2022-12-12T05:58:26.567Z,98518.59
2022-12-12T06:01:00.083Z,98528.81
2022-12-12T06:03:32.651Z,98531.38
2022-12-12T06:06:02.667Z,98533.06
2022-12-12T06:08:37.127Z,98542.44
2022-12-12T06:11:08.618Z,98533.94
2022-12-12T06:13:42.195Z,98533.94
2022-12-12T06:16:14.947Z,98522.00
2022-12-12T06:18:44.208Z,98535.63
2022-12-12T06:21:18.909Z,98539.03
2022-12-12T06:23:48.236Z,98538.16
2022-12-12T06:26:19.249Z,98547.53
2022-12-12T06:28:55.526Z,98544.97
2022-12-12T06:31:24.912Z,98522.84
2022-12-12T06:33:54.063Z,98518.59
2022-12-12T06:36:25.600Z,98534.78
2022-12-12T06:38:56.471Z,98536.50
2022-12-12T06:41:27.474Z,98539.03
2022-12-12T06:43:58.772Z,98540.72
2022-12-12T06:46:30.159Z,98533.06
2022-12-12T06:49:01.295Z,98556.91
2022-12-12T06:54:07.925Z,98548.41
2022-12-12T06:56:40.977Z,98552.66
2022-12-12T06:59:21.263Z,98548.41
2022-12-12T07:01:57.336Z,98548.41
2022-12-12T07:04:27.647Z,98555.22
2022-12-12T07:06:57.759Z,98535.63
2022-12-12T07:09:27.880Z,98528.78
2022-12-12T07:11:57.085Z,98533.91
2022-12-12T07:14:33.185Z,98545.81
2022-12-12T07:17:02.302Z,98554.34
2022-12-12T07:19:31.537Z,98565.41
2022-12-12T07:22:07.479Z,98578.19
2022-12-12T07:24:39.136Z,98579.88
2022-12-12T07:27:09.000Z,98561.16
2022-12-12T07:29:40.156Z,98570.50
2022-12-12T07:32:14.429Z,98562.84
2022-12-12T07:34:43.639Z,98560.28
2022-12-12T07:37:12.663Z,98520.28
2022-12-12T07:39:42.155Z,98562.84
2022-12-12T07:42:11.227Z,98548.34
2022-12-12T07:44:47.418Z,98541.56
2022-12-12T07:47:16.672Z,98545.78
2022-12-12T07:49:45.961Z,98543.28
2022-12-12T07:52:15.145Z,98559.47
2022-12-12T07:54:44.211Z,98550.09
2022-12-12T07:57:13.602Z,98559.44
2022-12-12T07:59:47.766Z,98568.81
2022-12-12T08:02:19.078Z,98572.22
2022-12-12T08:04:48.356Z,98556.03
2022-12-12T08:07:18.789Z,98563.69
2022-12-12T08:09:48.132Z,98561.13
2022-12-12T08:12:17.164Z,98567.97
2022-12-12T08:14:51.590Z,98563.69
2022-12-12T08:17:22.843Z,98572.25
2022-12-12T08:19:52.275Z,98564.56
2022-12-12T08:22:22.561Z,98559.47
2022-12-12T08:24:52.121Z,98558.56
2022-12-12T08:27:21.751Z,98538.16
2022-12-12T08:29:53.604Z,98567.94
2022-12-12T08:32:24.387Z,98557.72
2022-12-12T08:34:59.291Z,98556.03
2022-12-12T08:37:33.476Z,98572.22
2022-12-12T08:40:14.049Z,98568.81
2022-12-12T08:42:43.268Z,98545.81
2022-12-12T08:45:13.455Z,98574.75
2022-12-12T08:47:50.286Z,98580.75
2022-12-12T08:50:19.489Z,98576.47
2022-12-12T08:52:48.605Z,98573.06
2022-12-12T08:55:32.529Z,98568.81
2022-12-12T08:58:01.840Z,98564.53
2022-12-12T09:00:31.279Z,98570.50
2022-12-12T09:03:02.626Z,98570.50
2022-12-12T09:05:31.896Z,98579.03
2022-12-12T09:08:01.112Z,98573.91
2022-12-12T09:10:31.090Z,98576.47
2022-12-12T09:13:00.240Z,98577.31
2022-12-12T09:15:29.468Z,98588.41
2022-12-12T09:17:58.573Z,98573.91
2022-12-12T09:20:34.844Z,98579.84
2022-12-12T09:23:09.009Z,98561.16
2022-12-12T09:25:46.194Z,98579.00
2022-12-12T09:28:17.283Z,98587.53
2022-12-12T09:30:47.869Z,98590.06
2022-12-12T09:33:22.304Z,98590.91
2022-12-12T09:36:01.139Z,98576.44
2022-12-12T09:38:30.851Z,98595.16
2022-12-12T09:41:05.084Z,98583.22
2022-12-12T09:43:38.709Z,98578.97
2022-12-12T09:46:17.859Z,98574.72
2022-12-12T09:48:48.576Z,98557.72
2022-12-12T09:51:26.881Z,98573.84
2022-12-12T09:54:01.530Z,98579.84
2022-12-12T09:59:42.922Z,98591.78
2022-12-12T10:02:38.990Z,98581.53
2022-12-12T10:05:24.492Z,98584.09
2022-12-12T10:08:04.439Z,98576.44
2022-12-12T10:10:38.191Z,98569.59
2022-12-12T10:13:14.317Z,98574.72
2022-12-12T10:15:47.508Z,98576.44
2022-12-12T10:18:20.910Z,98561.09
2022-12-12T10:20:55.092Z,98567.91
2022-12-12T10:23:34.528Z,98561.09
2022-12-12T10:26:07.019Z,98564.47
2022-12-12T10:28:37.285Z,98571.31
2022-12-12T10:31:28.115Z,98557.69
2022-12-12T10:34:07.910Z,98562.75
2022-12-12T10:36:54.559Z,98567.03
2022-12-12T10:39:37.607Z,98573.03
2022-12-12T10:42:18.857Z,98568.78
2022-12-12T10:45:01.847Z,98561.94
2022-12-12T10:47:32.976Z,98541.53
2022-12-12T10:50:22.416Z,98564.53
2022-12-12T10:52:51.734Z,98567.94
2022-12-12T10:55:24.963Z,98550.88
2022-12-12T10:58:03.711Z,98565.38
2022-12-12T11:00:35.563Z,98562.81
2022-12-12T11:03:13.722Z,98562.78
2022-12-12T11:05:48.856Z,98574.75
2022-12-12T11:08:28.397Z,98578.16
2022-12-12T11:11:06.340Z,98574.75
2022-12-12T11:13:48.070Z,98569.63
2022-12-12T11:16:24.902Z,98567.94
2022-12-12T11:19:04.671Z,98557.72
2022-12-12T11:24:31.647Z,98556.03
2022-12-12T11:29:46.223Z,98559.44
2022-12-12T11:32:18.282Z,98554.31
2022-12-12T11:34:52.188Z,98558.59
2022-12-12T11:37:26.311Z,98550.06
2022-12-12T11:39:57.726Z,98563.69
2022-12-12T11:42:31.342Z,98552.59
2022-12-12T11:45:04.326Z,98552.59
2022-12-12T11:47:40.424Z,98548.38
2022-12-12T11:50:21.743Z,98547.50
2022-12-12T11:52:53.146Z,98550.91
2022-12-12T11:55:36.070Z,98550.94
2022-12-12T11:58:18.797Z,98551.78
2022-12-12T12:00:59.827Z,98565.41
2022-12-12T12:03:53.744Z,98550.91
2022-12-12T12:06:38.814Z,98541.56
2022-12-12T12:09:26.319Z,98550.91
2022-12-12T12:12:03.326Z,98543.28
2022-12-12T12:14:50.435Z,98540.75
2022-12-12T12:17:28.715Z,98560.28
2022-12-12T12:20:12.369Z,98522.88
2022-12-12T12:22:52.987Z,98549.25
2022-12-12T12:25:32.233Z,98539.00
2022-12-12T12:28:14.472Z,98554.31
2022-12-12T12:30:59.042Z,98556.91
2022-12-12T12:33:40.812Z,98549.22
2022-12-12T12:36:21.481Z,98545.84
2022-12-12T12:39:07.088Z,98550.09
2022-12-12T12:41:46.616Z,98528.81
2022-12-12T12:44:30.430Z,98540.72
2022-12-12T12:47:12.130Z,98522.88
2022-12-12T12:55:02.961Z,98547.56
2022-12-12T12:57:36.967Z,98539.88
2022-12-12T13:00:16.612Z,98550.13
2022-12-12T13:02:55.698Z,98549.25
2022-12-12T13:05:38.133Z,98558.59
2022-12-12T13:08:17.258Z,98541.59
2022-12-12T13:13:30.329Z,98539.03
2022-12-12T13:16:04.293Z,98549.25
2022-12-12T13:18:45.259Z,98544.13
2022-12-12T13:24:12.329Z,98553.50
2022-12-12T13:26:58.712Z,98552.63
2022-12-12T13:29:36.988Z,98525.41
2022-12-12T13:32:34.818Z,98565.44
2022-12-12T13:35:11.676Z,98552.66
2022-12-12T13:37:47.758Z,98539.88
2022-12-12T13:40:27.347Z,98533.91
2022-12-12T13:43:08.744Z,98534.78
2022-12-12T13:45:42.627Z,98505.84
2022-12-12T13:48:44.497Z,98533.06
2022-12-12T13:51:42.450Z,98531.34
2022-12-12T13:54:52.070Z,98539.88
2022-12-12T13:57:33.809Z,98535.63
2022-12-12T14:00:20.788Z,98546.69
2022-12-12T14:03:01.959Z,98541.59
2022-12-12T14:05:41.201Z,98531.34
2022-12-12T14:08:23.222Z,98543.28
2022-12-12T14:10:57.806Z,98584.13
2022-12-12T14:13:44.815Z,98605.41
2022-12-12T14:16:35.902Z,98606.25
2022-12-12T14:19:08.662Z,98603.72
2022-12-12T14:21:48.606Z,98588.38
2022-12-12T14:24:48.333Z,98585.84
2022-12-12T14:27:19.232Z,98591.78
2022-12-12T14:29:48.572Z,98567.09
2022-12-12T14:32:44.614Z,98585.00
2022-12-12T14:35:33.351Z,98555.19
2022-12-12T14:38:17.645Z,98570.50
2022-12-12T14:40:54.250Z,98578.16
2022-12-12T14:43:27.250Z,98572.22
2022-12-12T14:46:00.158Z,98568.81
2022-12-12T14:48:33.606Z,98561.13
2022-12-12T14:51:08.715Z,98581.56
2022-12-12T14:53:47.227Z,98567.13
2022-12-12T14:56:18.741Z,98565.41
2022-12-12T14:58:55.507Z,98558.59
2022-12-12T15:01:33.728Z,98565.41
2022-12-12T15:04:20.983Z,98578.16
2022-12-12T15:06:53.260Z,98569.63
2022-12-12T15:09:28.983Z,98563.69
2022-12-12T15:12:14.141Z,98573.03
2022-12-12T15:14:54.811Z,98538.13
2022-12-12T15:17:29.181Z,98562.81
2022-12-12T15:20:02.905Z,98559.44
2022-12-12T15:22:35.621Z,98563.69
2022-12-12T15:25:05.997Z,98567.13
2022-12-12T15:27:45.384Z,98573.03
2022-12-12T15:30:33.894Z,98565.41
2022-12-12T15:33:05.067Z,98564.53
2022-12-12T15:35:36.708Z,98567.09
2022-12-12T15:38:14.630Z,98563.69
2022-12-12T15:41:13.077Z,98567.09
2022-12-12T15:43:49.019Z,98554.31
2022-12-12T15:48:55.257Z,98558.59
2022-12-12T15:51:31.625Z,98563.69
2022-12-12T15:56:43.066Z,98545.81
2022-12-12T15:59:27.892Z,98567.91
2022-12-12T16:02:27.722Z,98563.69
2022-12-12T16:05:00.453Z,98538.13
2022-12-12T16:07:37.081Z,98557.72
2022-12-12T16:10:23.507Z,98561.97
2022-12-12T16:13:04.722Z,98539.00
2022-12-12T16:15:37.257Z,98556.88
2022-12-12T16:18:19.399Z,98556.88
2022-12-12T16:20:50.048Z,98556.88
2022-12-12T16:23:31.586Z,98556.03
2022-12-12T16:26:01.320Z,98553.44
2022-12-12T16:28:32.089Z,98544.94
2022-12-12T16:31:03.173Z,98555.16
2022-12-12T16:33:35.449Z,98548.34
2022-12-12T16:36:06.429Z,98543.22
2022-12-12T16:38:40.034Z,98539.84
2022-12-12T16:41:14.448Z,98550.88
2022-12-12T16:43:44.432Z,98552.59
2022-12-12T16:46:20.821Z,98522.81
2022-12-12T16:48:50.649Z,98553.44
2022-12-12T16:51:23.466Z,98543.22
2022-12-12T16:54:00.284Z,98554.28
2022-12-12T16:56:29.560Z,98500.66
2022-12-12T16:58:58.676Z,98545.78
2022-12-12T17:04:16.952Z,98561.97
2022-12-12T17:06:46.272Z,98558.59
2022-12-12T17:09:17.557Z,98557.72
2022-12-12T17:11:46.784Z,98565.38
2022-12-12T17:16:55.715Z,98567.06
2022-12-12T17:19:26.019Z,98556.88
2022-12-12T17:21:55.050Z,98558.59
2022-12-12T17:24:26.344Z,98556.88
2022-12-12T17:27:00.625Z,98567.91
2022-12-12T17:29:30.382Z,98567.91
2022-12-12T17:31:59.929Z,98571.34
2022-12-12T17:34:34.420Z,98542.38
2022-12-12T17:37:03.752Z,98579.84
2022-12-12T17:39:34.944Z,98584.06
2022-12-12T17:42:04.140Z,98573.03
2022-12-12T17:44:33.581Z,98579.84
2022-12-12T17:47:03.221Z,98573.91
2022-12-12T17:49:32.668Z,98573.84
2022-12-12T17:52:03.079Z,98568.75
2022-12-12T17:54:32.375Z,98567.91
2022-12-12T17:57:03.485Z,98577.28
2022-12-12T17:59:32.655Z,98571.31
2022-12-12T18:02:01.822Z,98573.84
2022-12-12T18:04:37.681Z,98548.28
2022-12-12T18:07:07.188Z,98576.41
2022-12-12T18:09:42.119Z,98572.13
2022-12-12T18:12:13.278Z,98578.13
2022-12-12T18:14:42.507Z,98567.03
2022-12-12T18:17:11.664Z,98578.13
2022-12-12T18:19:40.907Z,98565.34
2022-12-12T18:22:10.348Z,98572.13
2022-12-12T18:24:39.552Z,98579.84
2022-12-12T18:27:08.779Z,98581.56
2022-12-12T18:29:50.207Z,98584.13
2022-12-12T18:32:19.366Z,98529.59
2022-12-12T18:34:48.676Z,98587.50
2022-12-12T18:37:18.031Z,98573.91
2022-12-12T18:39:47.205Z,98590.06
2022-12-12T18:42:21.637Z,98598.56
2022-12-12T18:44:52.946Z,98590.06
2022-12-12T18:47:23.597Z,98596.88
2022-12-12T18:49:52.910Z,98601.09
2022-12-12T18:52:22.081Z,98583.22
2022-12-12T18:55:08.859Z,98601.09
2022-12-12T18:57:38.047Z,98597.69
2022-12-12T19:00:10.775Z,98593.41
2022-12-12T19:05:31.625Z,98607.91
2022-12-12T19:08:00.948Z,98582.31
2022-12-12T19:10:30.232Z,98601.91
2022-12-12T19:12:59.401Z,98617.25
2022-12-12T19:15:30.568Z,98612.13
2022-12-12T19:18:05.212Z,98603.63
2022-12-12T19:20:34.299Z,98623.22
2022-12-12T19:23:08.496Z,98630.03
2022-12-12T19:25:42.550Z,98636.00
2022-12-12T19:28:13.300Z,98623.22
2022-12-12T19:30:44.464Z,98619.78
2022-12-12T19:33:19.003Z,98647.03
2022-12-12T19:35:48.253Z,98641.09
2022-12-12T19:38:22.763Z,98631.72
2022-12-12T19:40:58.873Z,98643.63
2022-12-12T19:43:30.824Z,98652.13
2022-12-12T19:46:06.479Z,98660.69
2022-12-12T19:48:36.232Z,98647.03
2022-12-12T19:51:10.474Z,98659.78
2022-12-12T19:53:48.464Z,98666.59
2022-12-12T19:56:25.688Z,98658.94
2022-12-12T19:58:55.407Z,98656.38
2022-12-12T20:01:33.417Z,98654.66
2022-12-12T20:04:09.524Z,98655.47
2022-12-12T20:06:45.404Z,98650.25
2022-12-12T20:09:15.781Z,98670.66
2022-12-12T20:11:45.672Z,98659.63
2022-12-12T20:17:07.386Z,98668.09
2022-12-12T20:19:36.616Z,98670.63
2022-12-12T20:22:05.976Z,98668.91
2022-12-12T20:24:37.039Z,98668.91
2022-12-12T20:27:07.766Z,98665.56
2022-12-12T20:29:37.332Z,98666.38
2022-12-12T20:32:09.203Z,98673.19
2022-12-12T20:34:38.403Z,98680.06
2022-12-12T20:37:09.255Z,98673.22
2022-12-12T20:39:43.798Z,98665.50
2022-12-12T20:42:34.009Z,98687.69
2022-12-12T20:45:03.524Z,98686.84
2022-12-12T20:50:16.639Z,98685.16
2022-12-12T20:52:45.882Z,98694.50
2022-12-12T20:55:15.338Z,98692.78
2022-12-12T20:57:45.129Z,98688.53
2022-12-12T21:00:15.433Z,98680.84
2022-12-12T21:02:47.082Z,98664.69
2022-12-12T21:05:16.744Z,98687.72
2022-12-12T21:07:46.097Z,98690.28
2022-12-12T21:10:20.595Z,98700.50
2022-12-12T21:12:49.773Z,98700.53
2022-12-12T21:15:19.439Z,98713.31
2022-12-12T21:17:51.319Z,98697.13
2022-12-12T21:20:20.601Z,98703.97
2022-12-12T21:22:49.876Z,98684.34
2022-12-12T21:25:24.446Z,98691.16
2022-12-12T21:27:53.733Z,98699.66
2022-12-12T21:30:23.111Z,98710.78
2022-12-12T21:32:54.368Z,98698.84
2022-12-12T21:35:24.117Z,98673.22
2022-12-12T21:37:53.375Z,98705.63
2022-12-12T21:40:22.643Z,98708.19
2022-12-12T21:42:52.006Z,98701.38
2022-12-12T21:45:21.508Z,98703.03
2022-12-12T21:47:55.852Z,98710.66
2022-12-12T21:50:32.163Z,98702.19
2022-12-12T21:53:19.549Z,98696.22
2022-12-12T21:55:48.932Z,98721.72
2022-12-12T21:58:18.386Z,98712.38
2022-12-12T22:00:47.598Z,98718.31
2022-12-12T22:03:16.757Z,98714.94
2022-12-12T22:05:48.222Z,98697.00
2022-12-12T22:08:18.735Z,98709.03
2022-12-12T22:10:48.057Z,98695.31
2022-12-12T22:13:29.681Z,98720.88
2022-12-12T22:16:00.248Z,98707.28
2022-12-12T22:18:30.092Z,98701.28
2022-12-12T22:21:08.190Z,98688.47
2022-12-12T22:23:40.535Z,98712.38
2022-12-12T22:26:17.251Z,98722.59
2022-12-12T22:28:46.561Z,98699.53
2022-12-12T22:31:15.851Z,98715.75
2022-12-12T22:33:50.807Z,98731.03
2022-12-12T22:36:26.380Z,98737.81
2022-12-12T22:38:56.770Z,98732.72
2022-12-12T22:41:28.414Z,98740.38
2022-12-12T22:43:59.511Z,98728.38
2022-12-12T22:46:29.363Z,98742.88
2022-12-12T22:49:00.748Z,98740.34
2022-12-12T22:51:33.768Z,98746.25
2022-12-12T22:54:10.413Z,98744.56
2022-12-12T22:56:40.923Z,98749.59
2022-12-12T22:59:12.431Z,98759.84
2022-12-12T23:01:43.696Z,98750.47
2022-12-12T23:04:15.107Z,98753.03
2022-12-12T23:06:46.967Z,98760.66
2022-12-12T23:09:23.770Z,98754.69
2022-12-12T23:11:53.002Z,98756.38
2022-12-12T23:14:25.858Z,98764.03
2022-12-12T23:16:56.287Z,98749.47
2022-12-12T23:19:33.447Z,98754.63
2022-12-12T23:22:04.717Z,98758.00
2022-12-12T23:24:39.652Z,98755.41
2022-12-12T23:27:08.791Z,98752.88
2022-12-12T23:29:38.187Z,98757.09
2022-12-12T23:32:07.555Z,98755.41
2022-12-12T23:34:36.823Z,98755.38
2022-12-12T23:37:07.893Z,98767.34
2022-12-12T23:39:37.493Z,98760.56
2022-12-12T23:42:06.719Z,98764.84
2022-12-12T23:44:35.885Z,98764.84
2022-12-12T23:47:04.996Z,98762.25
2022-12-12T23:49:39.177Z,98761.41
2022-12-12T23:52:10.351Z,98772.47
2022-12-12T23:54:44.873Z,98778.41
2022-12-12T23:57:14.469Z,98771.63
2022-12-12T23:59:43.846Z,98766.53
